Time;durP1;ratioP1;P1;durP2;ratioP2;P2;SDS_P1;SDS_P2;PMS_P1;PMS_P2;Temp;Humidity;BMP_temperature;BMP_pressure;BME280_temperature;BME280_humidity;BME280_pressure;Samples;Min_cycle;Max_cycle;Signal;HPM_P1;HPM_P2
2022/12/30 00:01:49;;;;;;;14.13;8.73;;;;;;;10.99;100.00;98810.13;5095153;28;20028;-47
2022/12/30 00:04:14;;;;;;;9.48;7.82;;;;;;;10.94;100.00;98809.91;5095082;28;20481;-47
2022/12/30 00:06:40;;;;;;;9.25;7.80;;;;;;;10.78;100.00;98812.91;5094998;28;20031;-47
2022/12/30 00:09:06;;;;;;;10.93;7.85;;;;;;;10.66;100.00;98817.13;5094979;28;20482;-47
2022/12/30 00:11:33;;;;;;;9.10;8.05;;;;;;;10.64;100.00;98806.81;5094933;28;20032;-47
2022/12/30 00:33:42;;;;;;;;;;;;;;;11.87;100.00;98788.06;5095304;28;20124;-46
2022/12/30 00:36:08;;;;;;;13.82;7.93;;;;;;;11.82;100.00;98795.75;5094456;28;19912;-46
2022/12/30 00:38:34;;;;;;;13.52;8.38;;;;;;;11.57;100.00;98791.16;5093057;28;20035;-46
2022/12/30 00:43:57;;;;;;;11.40;7.45;;;;;;;11.64;100.00;98788.50;5071782;28;20040;-46
2022/12/30 00:46:23;;;;;;;10.63;6.78;;;;;;;11.70;100.00;98782.44;5071811;28;20032;-46
2022/12/30 00:57:03;;;;;;;10.50;7.10;;;;;;;11.49;100.00;98769.50;5071957;28;20036;-46
2022/12/30 00:59:29;;;;;;;11.77;6.65;;;;;;;11.63;100.00;98767.69;5071410;28;20033;-46
2022/12/30 01:01:54;;;;;;;9.48;8.25;;;;;;;11.48;100.00;98770.53;5071512;28;20036;-46
2022/12/30 01:04:20;;;;;;;9.63;6.68;;;;;;;11.34;100.00;98773.16;5054751;28;20016;-46
2022/12/30 01:06:45;;;;;;;17.42;9.70;;;;;;;11.23;100.00;98776.41;5054556;28;20045;-46
2022/12/30 01:09:11;;;;;;;11.23;8.40;;;;;;;11.58;100.00;98791.94;5071265;28;20025;-46
2022/12/30 01:11:36;;;;;;;9.57;6.90;;;;;;;11.66;100.00;98793.56;5071330;28;20528;-46
2022/12/30 01:14:02;;;;;;;8.90;7.20;;;;;;;11.51;100.00;98799.84;5071158;28;20067;-46
2022/12/30 01:16:28;;;;;;;11.15;7.68;;;;;;;11.45;100.00;98805.09;5071238;28;20033;-46
2022/12/30 01:18:53;;;;;;;11.45;7.22;;;;;;;11.63;100.00;98805.31;5060519;28;20047;-46
2022/12/30 01:21:19;;;;;;;11.90;7.28;;;;;;;11.84;100.00;98804.25;5092317;28;20105;-46
2022/12/30 01:23:44;;;;;;;12.70;6.82;;;;;;;11.97;100.00;98811.31;5092216;28;20451;-46
2022/12/30 01:26:10;;;;;;;9.63;7.90;;;;;;;11.87;100.00;98803.03;5091928;28;20115;-46
2022/12/30 01:28:37;;;;;;;10.38;8.23;;;;;;;11.68;100.00;98810.75;5093448;28;20024;-46
2022/12/30 01:31:08;;;;;;;15.15;6.75;;;;;;;11.59;100.00;98806.72;5093356;28;20069;-46
2022/12/30 01:33:35;;;;;;;14.45;8.93;;;;;;;11.66;100.00;98791.75;5092048;28;20020;-46
2022/12/30 01:36:01;;;;;;;9.05;6.50;;;;;;;11.91;100.00;98796.38;5091182;28;20406;-46
2022/12/30 01:38:32;;;;;;;20.05;8.23;;;;;;;11.95;100.00;98797.56;5093279;28;20020;-46
2022/12/30 01:40:58;;;;;;;14.90;8.63;;;;;;;11.74;100.00;98791.53;5093083;28;20035;-46
2022/12/30 01:43:44;;;;;;;28.77;8.15;;;;;;;11.82;100.00;98782.63;5093210;28;20024;-46
2022/12/30 01:46:15;;;;;;;28.80;9.38;;;;;;;11.63;99.11;98781.66;5093192;28;20082;-46
2022/12/30 01:48:40;;;;;;;24.83;9.73;;;;;;;11.33;98.02;98776.81;5091882;28;20023;-46
2022/12/30 01:51:11;;;;;;;17.90;10.07;;;;;;;11.25;98.73;98782.28;5092929;28;20498;-46
2022/12/30 01:53:44;;;;;;;59.15;11.00;;;;;;;11.46;100.00;98790.97;5093014;28;20020;-46
2022/12/30 01:56:34;;;;;;;13.00;9.73;;;;;;;11.33;99.18;98786.53;5091657;28;20119;-46
2022/12/30 01:59:07;;;;;;;486.65;23.13;;;;;;;11.20;98.85;98784.69;5092858;28;20024;-46
2022/12/30 02:01:35;;;;;;;13.77;10.70;;;;;;;11.07;98.90;98796.00;5092838;28;20028;-46
2022/12/30 02:04:05;;;;;;;117.93;12.85;;;;;;;11.23;100.00;98794.81;5092697;28;20111;-46
2022/12/30 02:06:43;;;;;;;47.85;12.98;;;;;;;11.12;99.93;98800.66;5092999;28;20052;-46
2022/12/30 02:09:09;;;;;;;17.55;12.07;;;;;;;11.26;100.00;98804.91;5091435;28;20481;-46
2022/12/30 02:11:35;;;;;;;14.32;11.65;;;;;;;11.58;100.00;98805.91;5091283;28;20028;-46
2022/12/30 02:14:02;;;;;;;15.30;11.30;;;;;;;11.79;100.00;98809.31;5092532;28;20576;-47
2022/12/30 02:16:52;;;;;;;31.25;12.77;;;;;;;11.86;100.00;98804.06;5092731;28;20024;-46
2022/12/30 02:19:35;;;;;;;20.13;11.23;;;;;;;11.92;100.00;98813.78;5092400;28;20136;-46
2022/12/30 02:22:25;;;;;;;51.13;44.85;;;;;;;12.21;100.00;98807.22;5092367;28;20398;-47
2022/12/30 02:25:14;;;;;;;34.03;17.80;;;;;;;12.27;99.72;98795.06;5091209;28;20047;-47
2022/12/30 02:28:06;;;;;;;58.80;49.13;;;;;;;12.14;98.65;98791.44;5092216;28;20133;-47
2022/12/30 02:31:09;;;;;;;160.30;16.92;;;;;;;12.13;98.51;98789.03;5086901;28;20498;-47
2022/12/30 02:34:12;;;;;;;166.68;15.48;;;;;;;11.71;96.46;98791.94;5092252;28;20019;-47
2022/12/30 02:36:44;;;;;;;36.35;13.95;;;;;;;11.40;96.90;98788.13;5073196;28;20028;-47
2022/12/30 02:39:25;;;;;;;61.10;12.75;;;;;;;11.20;97.86;98796.00;5092129;28;20020;-47
2022/12/30 02:45:19;;;;;;;93.53;13.85;;;;;;;11.07;98.28;98792.56;5092405;28;20074;-47
2022/12/30 02:48:02;;;;;;;147.95;14.20;;;;;;;11.18;99.43;98791.97;5090788;28;20036;-47
2022/12/30 02:53:21;;;;;;;81.97;14.32;;;;;;;11.35;99.04;98777.41;5092305;28;20027;-47
2022/12/30 02:55:48;;;;;;;123.35;12.90;;;;;;;11.33;99.19;98771.56;5090602;28;20016;-47
2022/12/30 02:58:14;;;;;;;101.85;15.63;;;;;;;11.25;98.67;98769.13;5091983;28;20548;-47
2022/12/30 03:04:17;;;;;;;89.03;14.75;;;;;;;10.88;97.60;98758.19;5091912;28;20035;-47
2022/12/30 03:07:07;;;;;;;111.40;13.52;;;;;;;10.61;96.51;98754.72;5090510;28;20062;-46
2022/12/30 03:11:12;;;;;;;135.38;13.75;;;;;;;10.32;95.81;98750.59;5090597;28;20024;-46
2022/12/30 03:12:39;;;;;;;70.82;11.85;;;;;;;10.06;95.05;98752.09;5091780;28;20070;-46
2022/12/30 03:15:13;;;;;;;86.72;15.85;;;;;;;9.82;95.73;98752.56;5090550;28;20039;-46
2022/12/30 03:17:40;;;;;;;95.90;15.98;;;;;;;9.87;97.74;98747.56;5090500;28;20464;-46
2022/12/30 03:20:14;;;;;;;207.45;16.25;;;;;;;9.91;98.75;98746.97;5091958;28;20028;-46
2022/12/30 03:28:13;;;;;;;;;;;;;;;9.03;99.30;98743.97;5092524;28;20093;-47
2022/12/30 03:30:50;;;;;;;98.95;15.85;;;;;;;9.24;100.00;98742.34;5091967;28;20054;-47
2022/12/30 03:33:18;;;;;;;101.00;16.63;;;;;;;9.28;100.00;98736.53;5090390;28;20024;-47
2022/12/30 03:36:00;;;;;;;372.02;28.77;;;;;;;8.99;100.00;98733.09;5091564;28;20051;-47
2022/12/30 03:38:32;;;;;;;115.35;20.77;;;;;;;8.70;100.00;98739.25;5091636;28;20024;-47
2022/12/30 03:41:01;;;;;;;68.28;20.00;;;;;;;8.58;100.00;98738.94;5091546;28;20031;-47
2022/12/30 03:43:27;;;;;;;107.05;23.42;;;;;;;8.64;100.00;98732.16;5091522;28;20024;-47
2022/12/30 03:45:53;;;;;;;88.45;21.77;;;;;;;8.93;100.00;98722.53;5090176;28;20032;-47
2022/12/30 03:48:19;;;;;;;225.70;26.85;;;;;;;9.12;100.00;98721.91;5091499;28;20028;-47
2022/12/30 03:50:45;;;;;;;224.95;26.42;;;;;;;9.18;100.00;98725.59;5091493;28;20085;-47
2022/12/30 03:53:11;;;;;;;139.95;22.38;;;;;;;8.92;100.00;98721.75;5091434;28;20510;-47
2022/12/30 03:55:36;;;;;;;51.08;22.80;;;;;;;9.01;100.00;98711.94;5090131;28;20028;-47
2022/12/30 03:58:02;;;;;;;169.82;20.95;;;;;;;9.01;100.00;98717.19;5090035;28;20020;-47
2022/12/30 04:00:28;;;;;;;141.13;19.63;;;;;;;8.73;100.00;98722.38;5093199;28;20401;-47
2022/12/30 04:02:53;;;;;;;97.50;18.20;;;;;;;8.40;100.00;98715.78;5093821;28;20085;-47
2022/12/30 04:05:19;;;;;;;98.72;19.25;;;;;;;8.45;100.00;98714.44;5093793;28;20031;-47
2022/12/30 04:07:44;;;;;;;200.15;21.52;;;;;;;8.51;100.00;98711.94;5093687;28;20024;-47
2022/12/30 04:10:10;;;;;;;201.57;21.33;;;;;;;8.40;100.00;98715.78;5093963;28;20028;-47
2022/12/30 04:12:36;;;;;;;233.45;21.92;;;;;;;8.26;100.00;98718.47;5093628;28;20111;-47
2022/12/30 04:15:01;;;;;;;276.05;24.08;;;;;;;8.12;100.00;98720.09;5094898;28;20030;-47
2022/12/30 04:17:27;;;;;;;241.20;23.05;;;;;;;7.95;100.00;98709.88;5094838;28;20024;-47
2022/12/30 04:19:52;;;;;;;77.50;17.02;;;;;;;7.89;100.00;98713.22;5093379;28;20047;-47
2022/12/30 04:22:18;;;;;;;240.82;23.95;;;;;;;7.93;100.00;98711.06;5093429;28;20031;-47
2022/12/30 04:24:43;;;;;;;135.40;19.88;;;;;;;7.94;100.00;98710.84;5094732;28;20107;-47
2022/12/30 04:27:09;;;;;;;157.02;21.40;;;;;;;7.98;100.00;98695.63;5093061;28;20047;-47
2022/12/30 04:29:35;;;;;;;219.25;22.25;;;;;;;7.95;100.00;98693.38;5094574;28;20028;-47
2022/12/30 04:32:00;;;;;;;451.40;34.90;;;;;;;7.87;100.00;98688.22;5093501;28;20020;-47
2022/12/30 04:34:26;;;;;;;161.73;19.88;;;;;;;7.73;100.00;98692.50;5093237;28;20024;-47
2022/12/30 04:36:52;;;;;;;373.05;31.23;;;;;;;7.60;100.00;98680.88;5094470;28;20161;-47
2022/12/30 04:39:17;;;;;;;38.03;19.42;;;;;;;7.50;100.00;98692.59;5093079;28;20102;-47
2022/12/30 04:41:43;;;;;;;30.55;20.13;;;;;;;7.55;100.00;98692.88;5093108;28;20038;-47
2022/12/30 04:44:09;;;;;;;32.30;20.00;;;;;;;7.73;100.00;98695.13;5093021;28;20024;-47
2022/12/30 04:46:34;;;;;;;19.48;16.50;;;;;;;7.94;100.00;98686.53;5092947;28;20044;-47
2022/12/30 04:49:00;;;;;;;86.38;18.15;;;;;;;8.09;100.00;98687.31;5093220;28;20111;-47
2022/12/30 04:51:25;;;;;;;18.35;14.60;;;;;;;8.11;100.00;98687.09;5094769;28;20028;-47
2022/12/30 04:53:51;;;;;;;57.47;16.80;;;;;;;7.97;100.00;98678.34;5092847;28;20024;-47
2022/12/30 04:56:17;;;;;;;21.63;15.63;;;;;;;7.85;100.00;98685.81;5092804;28;20034;-47
2022/12/30 04:58:43;;;;;;;21.85;16.17;;;;;;;7.80;100.00;98678.50;5094355;28;20024;-47
2022/12/30 05:01:09;;;;;;;21.60;16.70;;;;;;;7.83;100.00;98677.34;5092595;28;20036;-47
2022/12/30 05:03:35;;;;;;;18.63;15.38;;;;;;;7.87;100.00;98676.00;5093980;28;20059;-47
2022/12/30 05:06:00;;;;;;;18.50;15.30;;;;;;;7.97;100.00;98670.50;5075812;28;20024;-47
2022/12/30 05:08:26;;;;;;;26.77;15.52;;;;;;;8.20;100.00;98678.16;5092605;28;20054;-47
2022/12/30 05:10:52;;;;;;;19.10;12.68;;;;;;;8.80;100.00;98670.91;5092706;28;20024;-47
2022/12/30 05:13:17;;;;;;;20.90;12.88;;;;;;;9.02;100.00;98678.75;5093788;28;20067;-47
2022/12/30 05:15:43;;;;;;;18.45;13.93;;;;;;;9.02;100.00;98676.94;5093749;28;20024;-46
2022/12/30 05:18:10;;;;;;;20.20;11.32;;;;;;;9.43;100.00;98680.59;5092382;28;20024;-46
2022/12/30 05:20:36;;;;;;;14.15;10.73;;;;;;;10.09;100.00;98677.47;5092238;28;20040;-46
2022/12/30 05:23:01;;;;;;;20.63;10.57;;;;;;;10.24;100.00;98675.50;5092331;28;20036;-46
2022/12/30 05:28:11;;;;;;;14.43;10.65;;;;;;;9.40;98.12;98669.53;5053572;28;20415;-46
2022/12/30 05:30:37;;;;;;;17.90;12.13;;;;;;;9.13;97.59;98665.09;5053171;28;20029;-46
2022/12/30 05:33:03;;;;;;;30.15;12.45;;;;;;;9.03;98.33;98669.88;5053176;28;20151;-46
2022/12/30 05:35:28;;;;;;;15.13;12.35;;;;;;;8.97;98.78;98666.22;5053154;28;20033;-46
2022/12/30 05:37:54;;;;;;;16.08;12.43;;;;;;;8.96;98.79;98661.97;5053109;28;20422;-46
2022/12/30 05:40:20;;;;;;;18.83;12.43;;;;;;;8.94;98.97;98662.16;5051631;28;20514;-46
2022/12/30 05:42:46;;;;;;;17.95;11.88;;;;;;;8.97;99.52;98661.81;5051809;28;20017;-46
2022/12/30 05:45:12;;;;;;;14.20;10.95;;;;;;;8.97;99.25;98658.34;5052933;28;20027;-46
2022/12/30 05:47:37;;;;;;;14.32;11.18;;;;;;;8.98;99.38;98663.41;5051640;28;20083;-46
2022/12/30 05:50:03;;;;;;;16.20;11.20;;;;;;;9.03;100.00;98659.41;5052756;28;20025;-46
2022/12/30 05:52:29;;;;;;;18.95;12.82;;;;;;;9.05;99.85;98658.22;5052792;28;20032;-46
2022/12/30 05:54:55;;;;;;;17.15;11.82;;;;;;;9.04;99.42;98661.03;5051452;28;20036;-46
2022/12/30 05:57:21;;;;;;;12.88;11.52;;;;;;;9.06;99.58;98664.28;5052716;28;20021;-46
2022/12/30 05:59:46;;;;;;;20.02;13.05;;;;;;;9.14;99.98;98666.75;5051250;28;20025;-46
2022/12/30 06:02:12;;;;;;;16.88;11.70;;;;;;;9.24;100.00;98679.50;5051280;28;20491;-47
2022/12/30 06:04:38;;;;;;;16.02;10.93;;;;;;;9.34;100.00;98686.00;5052577;28;20144;-47
2022/12/30 06:07:03;;;;;;;18.60;13.45;;;;;;;9.51;100.00;98680.44;5052488;28;20392;-46
2022/12/30 06:09:29;;;;;;;14.00;10.35;;;;;;;9.80;100.00;98672.34;5052501;28;20498;-47
2022/12/30 06:11:55;;;;;;;14.70;9.40;;;;;;;10.11;100.00;98680.72;5052393;28;20064;-47
2022/12/30 06:14:22;;;;;;;16.88;9.48;;;;;;;10.16;100.00;98683.53;5051146;28;20029;-46
2022/12/30 06:16:48;;;;;;;11.68;8.85;;;;;;;10.34;100.00;98683.00;5052308;28;20030;-47
2022/12/30 06:19:14;;;;;;;11.88;8.88;;;;;;;10.27;98.64;98679.53;5052248;28;20031;-47
2022/12/30 06:21:39;;;;;;;10.68;9.13;;;;;;;10.14;97.69;98670.63;5050602;28;20104;-47
2022/12/30 06:24:06;;;;;;;12.02;9.13;;;;;;;10.03;97.33;98673.03;5052528;28;20033;-47
2022/12/30 06:26:32;;;;;;;13.00;8.90;;;;;;;9.89;97.07;98659.84;5066635;28;20032;-47
2022/12/30 06:28:57;;;;;;;16.45;10.70;;;;;;;9.75;96.79;98672.09;5092423;28;20028;-47
2022/12/30 06:31:23;;;;;;;18.63;8.23;;;;;;;10.13;99.55;98666.38;5090986;28;20020;-47
2022/12/30 06:33:49;;;;;;;18.77;9.25;;;;;;;10.67;100.00;98663.91;5090986;28;20394;-47
2022/12/30 06:36:14;;;;;;;25.10;8.70;;;;;;;10.81;98.51;98664.72;5090950;28;20199;-47
2022/12/30 06:38:40;;;;;;;17.05;8.50;;;;;;;11.11;98.19;98675.59;5090913;28;20020;-47
2022/12/30 06:41:06;;;;;;;18.85;8.52;;;;;;;11.08;96.55;98665.50;5090804;28;20034;-47
2022/12/30 06:43:32;;;;;;;26.98;8.85;;;;;;;10.95;94.98;98671.56;5092150;28;20497;-47
2022/12/30 06:45:57;;;;;;;14.30;8.85;;;;;;;10.81;94.27;98673.38;5090820;28;20081;-47
2022/12/30 06:48:23;;;;;;;14.07;9.35;;;;;;;10.48;93.36;98668.91;5092099;28;20494;-47
2022/12/30 06:50:48;;;;;;;16.15;9.90;;;;;;;10.15;93.61;98671.44;5092011;28;20020;-47
2022/12/30 06:53:14;;;;;;;15.60;11.23;;;;;;;9.95;94.60;98666.94;5090797;28;20673;-47
2022/12/30 06:55:40;;;;;;;20.90;11.00;;;;;;;9.72;94.79;98651.53;5090706;28;20510;-47
2022/12/30 06:58:06;;;;;;;17.92;11.88;;;;;;;9.80;97.28;98654.00;5090684;28;20110;-47
2022/12/30 07:00:32;;;;;;;18.65;11.85;;;;;;;10.00;98.14;98653.25;5091891;28;20020;-47
2022/12/30 07:02:58;;;;;;;18.40;9.70;;;;;;;10.40;99.27;98653.34;5090594;28;20080;-47
2022/12/30 07:05:24;;;;;;;15.80;9.77;;;;;;;10.73;98.83;98650.75;5091867;28;20028;-47
2022/12/30 07:07:50;;;;;;;26.88;9.75;;;;;;;10.83;97.56;98652.19;5091908;28;20028;-47
2022/12/30 07:10:16;;;;;;;13.80;8.77;;;;;;;11.06;97.66;98646.50;5090437;28;20154;-47
2022/12/30 07:12:42;;;;;;;20.25;9.13;;;;;;;11.36;97.41;98652.09;5090633;28;20107;-48
2022/12/30 07:15:08;;;;;;;18.63;9.60;;;;;;;11.55;96.07;98645.16;5091843;28;20217;-47
2022/12/30 07:17:34;;;;;;;15.40;8.90;;;;;;;11.58;94.38;98660.53;5091669;28;20024;-47
2022/12/30 07:19:59;;;;;;;14.15;8.32;;;;;;;11.48;93.31;98657.53;5091690;28;20133;-48
2022/12/30 07:22:25;;;;;;;15.32;8.32;;;;;;;11.41;93.64;98654.94;5090393;28;20020;-47
2022/12/30 07:24:51;;;;;;;19.73;8.32;;;;;;;11.44;93.73;98659.75;5091708;28;20103;-48
2022/12/30 07:27:16;;;;;;;17.55;8.85;;;;;;;11.62;94.29;98645.16;5091416;28;20076;-48
2022/12/30 07:29:42;;;;;;;23.98;9.43;;;;;;;11.67;93.32;98640.06;5090315;28;20398;-48
2022/12/30 07:32:10;;;;;;;24.13;9.50;;;;;;;11.82;93.19;98642.44;5091610;28;20028;-48
2022/12/30 07:34:39;;;;;;;15.93;8.13;;;;;;;12.01;92.19;98638.94;5093515;28;20020;-48
2022/12/30 07:37:05;;;;;;;16.02;8.82;;;;;;;12.11;90.73;98635.84;5095670;28;20095;-48
2022/12/30 07:39:31;;;;;;;22.20;8.82;;;;;;;12.08;90.56;98647.59;5095552;28;20069;-48
2022/12/30 07:41:57;;;;;;;15.65;8.68;;;;;;;12.07;90.47;98632.81;5094196;28;20032;-47
2022/12/30 07:44:23;;;;;;;14.98;8.02;;;;;;;12.08;90.09;98629.19;5095725;28;20505;-48
2022/12/30 07:46:49;;;;;;;14.70;8.57;;;;;;;12.13;91.07;98626.75;5095470;28;20478;-48
2022/12/30 07:49:15;;;;;;;13.55;7.75;;;;;;;12.19;90.33;98636.41;5095627;28;20569;-48
2022/12/30 07:51:40;;;;;;;21.27;10.68;;;;;;;12.27;89.44;98642.44;5095375;28;20115;-48
2022/12/30 07:54:06;;;;;;;20.23;9.27;;;;;;;12.33;90.56;98639.75;5095357;28;20023;-48
2022/12/30 07:56:32;;;;;;;13.93;7.97;;;;;;;12.43;90.96;98644.53;5095249;28;20099;-48
2022/12/30 07:58:58;;;;;;;14.48;8.18;;;;;;;12.49;90.90;98643.69;5093901;28;20055;-48
2022/12/30 08:01:25;;;;;;;13.95;7.30;;;;;;;12.61;89.73;98637.75;5095205;28;20035;-48
2022/12/30 08:03:51;;;;;;;11.68;7.38;;;;;;;12.62;89.69;98639.38;5095138;28;20099;-48
2022/12/30 08:06:18;;;;;;;22.88;8.77;;;;;;;12.69;90.21;98645.38;5095116;28;20107;-48
2022/12/30 08:08:45;;;;;;;14.25;7.45;;;;;;;12.74;89.06;98650.81;5093770;28;20020;-47
2022/12/30 08:11:12;;;;;;;22.65;8.82;;;;;;;12.79;89.21;98638.59;5094030;28;20043;-47
2022/12/30 08:13:40;;;;;;;15.77;7.85;;;;;;;12.83;89.36;98636.34;5093913;28;20416;-48
2022/12/30 08:16:15;;;;;;;11.20;7.45;;;;;;;12.87;88.47;98634.88;5094904;28;20497;-48
2022/12/30 08:18:41;;;;;;;16.13;8.45;;;;;;;12.88;87.50;98633.88;5094937;28;20035;-48
2022/12/30 08:21:10;;;;;;;15.18;7.60;;;;;;;12.87;86.58;98626.97;5094838;28;20040;-48
2022/12/30 08:23:36;;;;;;;14.23;7.68;;;;;;;12.85;86.39;98628.22;5093503;28;20036;-48
2022/12/30 08:26:09;;;;;;;11.85;7.97;;;;;;;12.93;85.30;98634.03;5094445;28;20037;-48
2022/12/30 08:28:35;;;;;;;20.67;8.00;;;;;;;12.95;86.40;98639.09;5093687;28;20043;-48
2022/12/30 08:31:14;;;;;;;11.95;7.95;;;;;;;12.95;87.55;98637.25;5093220;28;20030;-48
2022/12/30 08:33:40;;;;;;;20.45;9.10;;;;;;;12.99;87.64;98637.63;5093408;28;20028;-48
2022/12/30 08:36:10;;;;;;;21.20;7.88;;;;;;;13.06;88.24;98634.91;5093541;28;20065;-48
2022/12/30 08:38:38;;;;;;;20.30;8.05;;;;;;;13.12;86.31;98634.03;5093485;28;20085;-48
2022/12/30 08:41:18;;;;;;;17.77;7.82;;;;;;;13.21;87.40;98622.22;5094426;28;20020;-48
2022/12/30 08:43:44;;;;;;;17.30;7.20;;;;;;;13.35;85.36;98628.97;5094485;28;20105;-48
2022/12/30 08:46:10;;;;;;;18.45;7.05;;;;;;;13.49;84.30;98663.91;5092847;28;20024;-47
2022/12/30 08:48:35;;;;;;;13.65;6.97;;;;;;;13.66;85.09;98655.41;5094303;28;20065;-48
2022/12/30 08:51:01;;;;;;;21.60;7.70;;;;;;;13.77;82.26;98652.84;5092958;28;20119;-48
2022/12/30 08:53:27;;;;;;;13.60;6.65;;;;;;;13.88;81.17;98651.28;5094206;28;20389;-47
2022/12/30 08:56:15;;;;;;;21.60;7.80;;;;;;;14.13;83.38;98653.00;5094191;28;20020;-47
2022/12/30 08:58:41;;;;;;;18.92;7.65;;;;;;;14.53;81.15;98647.94;5094103;28;20415;-48
2022/12/30 09:01:13;;;;;;;14.15;6.57;;;;;;;14.76;79.01;98654.31;5092992;28;20027;-48
2022/12/30 09:03:41;;;;;;;17.90;8.15;;;;;;;14.70;77.52;98663.16;5094029;28;20103;-48
2022/12/30 09:06:09;;;;;;;14.55;6.30;;;;;;;14.53;76.31;98658.50;5093991;28;20021;-48
2022/12/30 09:08:35;;;;;;;11.65;6.43;;;;;;;14.41;76.66;98667.41;5093924;28;20513;-48
2022/12/30 09:11:07;;;;;;;14.93;6.80;;;;;;;14.24;77.75;98675.19;5093915;28;20040;-48
2022/12/30 09:13:36;;;;;;;18.75;7.15;;;;;;;13.97;79.02;98678.19;5093893;28;20049;-48
2022/12/30 09:16:03;;;;;;;14.80;6.65;;;;;;;13.76;78.97;98690.81;5093676;28;20028;-48
2022/12/30 09:18:29;;;;;;;15.25;7.22;;;;;;;13.49;78.88;98713.22;5092394;28;20016;-48
2022/12/30 09:20:54;;;;;;;11.30;7.40;;;;;;;13.11;81.13;98695.69;5092277;28;20039;-48
2022/12/30 09:23:20;;;;;;;19.73;7.93;;;;;;;12.90;83.10;98687.16;5092378;28;20020;-48
2022/12/30 09:25:46;;;;;;;19.60;8.77;;;;;;;12.91;84.15;98687.94;5093240;28;20505;-49
2022/12/30 09:28:12;;;;;;;13.05;8.13;;;;;;;12.96;85.39;98696.81;5093590;28;20063;-48
2022/12/30 09:30:38;;;;;;;12.20;6.90;;;;;;;13.03;84.32;98696.75;5093388;28;20066;-48
2022/12/30 09:33:04;;;;;;;14.40;6.70;;;;;;;13.05;83.95;98693.91;5093425;28;20103;-48
2022/12/30 09:35:30;;;;;;;8.43;6.30;;;;;;;13.14;83.49;98690.00;5092053;28;20016;-48
2022/12/30 09:37:55;;;;;;;13.52;6.32;;;;;;;13.28;83.67;98701.19;5093342;28;20035;-48
2022/12/30 09:40:35;;;;;;;15.40;6.05;;;;;;;13.34;81.60;98709.09;5093245;28;20103;-48
2022/12/30 09:43:16;;;;;;;18.80;10.27;;;;;;;13.30;82.30;98712.34;5093323;28;20504;-48
2022/12/30 09:45:54;;;;;;;14.10;7.90;;;;;;;13.19;82.62;98714.66;5093143;28;20028;-48
2022/12/30 09:48:24;;;;;;;20.58;14.98;;;;;;;13.14;83.93;98725.06;5093160;28;20111;-48
2022/12/30 09:51:02;;;;;;;20.80;12.90;;;;;;;12.99;83.90;98712.19;5093399;28;20099;-48
2022/12/30 09:53:45;;;;;;;21.38;12.35;;;;;;;12.92;84.57;98721.97;5093130;28;20062;-48
2022/12/30 09:56:11;;;;;;;17.38;9.60;;;;;;;12.85;86.79;98715.94;5091367;28;20042;-48
2022/12/30 09:58:37;;;;;;;11.88;6.50;;;;;;;12.86;85.36;98719.38;5092674;28;20484;-48
2022/12/30 10:01:22;;;;;;;20.67;14.43;;;;;;;12.81;84.95;98708.69;5092815;28;20068;-48
2022/12/30 10:03:50;;;;;;;13.98;7.07;;;;;;;12.75;86.03;98713.78;5091997;28;20060;-48
2022/12/30 10:06:24;;;;;;;22.63;10.15;;;;;;;12.73;87.02;98712.38;5092768;28;20062;-48
2022/12/30 10:09:15;;;;;;;41.38;37.03;;;;;;;12.74;86.19;98738.53;5091493;28;20027;-48
2022/12/30 10:12:13;;;;;;;14.27;10.05;;;;;;;12.74;87.61;98721.91;5092991;28;20447;-48
2022/12/30 10:15:16;;;;;;;35.40;27.75;;;;;;;12.90;87.68;98723.22;5091369;28;20024;-48
2022/12/30 10:18:12;;;;;;;9.57;6.18;;;;;;;12.90;85.00;98724.03;5092655;28;20024;-48
2022/12/30 10:20:53;;;;;;;16.50;8.32;;;;;;;12.93;84.57;98709.63;5092489;28;20427;-48
2022/12/30 10:23:37;;;;;;;18.42;7.95;;;;;;;13.14;85.47;98706.59;5092866;28;20066;-48
2022/12/30 10:26:12;;;;;;;22.20;15.15;;;;;;;13.33;85.45;98712.75;5092209;28;20062;-48
2022/12/30 10:28:45;;;;;;;12.82;7.70;;;;;;;13.34;84.33;98697.72;5091515;28;20024;-48
2022/12/30 10:31:24;;;;;;;15.85;11.63;;;;;;;13.25;85.60;98709.56;5092321;28;20040;-48
2022/12/30 10:33:53;;;;;;;10.50;5.95;;;;;;;13.17;83.97;98703.53;5091137;28;20485;-48
2022/12/30 10:36:32;;;;;;;26.90;12.07;;;;;;;13.21;85.29;98693.38;5092286;28;20509;-48
2022/12/30 10:39:24;;;;;;;18.67;12.13;;;;;;;13.38;84.50;98696.25;5092290;28;20024;-48
2022/12/30 10:42:07;;;;;;;17.17;10.73;;;;;;;13.41;83.83;98693.19;5092290;28;20027;-48
2022/12/30 10:45:15;;;;;;;19.55;9.98;;;;;;;13.43;82.77;98688.50;5090903;28;20038;-48
2022/12/30 10:48:12;;;;;;;19.73;8.52;;;;;;;13.49;83.96;98702.66;5092351;28;20390;-48
2022/12/30 10:50:43;;;;;;;11.85;5.40;;;;;;;13.50;82.59;98694.53;5090747;28;20435;-48
2022/12/30 10:53:15;;;;;;;13.07;5.72;;;;;;;13.50;82.09;98709.53;5090925;28;20028;-48
2022/12/30 10:55:47;;;;;;;16.02;5.22;;;;;;;13.52;82.70;98692.50;5090744;28;20251;-48
2022/12/30 10:58:24;;;;;;;14.90;4.97;;;;;;;13.58;81.39;98704.78;5092063;28;20028;-48
2022/12/30 11:00:50;;;;;;;15.45;5.00;;;;;;;13.64;81.58;98668.00;5090632;28;20024;-48
2022/12/30 11:03:31;;;;;;;19.55;10.95;;;;;;;13.75;80.15;98705.00;5091914;28;20020;-48
2022/12/30 11:06:15;;;;;;;16.88;11.75;;;;;;;13.69;80.25;98700.59;5092140;28;20580;-48
2022/12/30 11:08:41;;;;;;;16.45;6.15;;;;;;;13.56;79.93;98713.94;5090986;28;20036;-47
2022/12/30 11:11:08;;;;;;;14.77;7.55;;;;;;;13.45;80.86;98712.84;5091851;28;20027;-47
2022/12/30 11:16:30;;;;;;;14.23;5.70;;;;;;;13.17;83.14;98715.91;5092095;28;20085;-48
2022/12/30 11:18:58;;;;;;;15.02;9.10;;;;;;;12.97;84.15;98711.59;5091867;28;20032;-47
2022/12/30 11:21:35;;;;;;;12.30;5.20;;;;;;;12.86;84.08;98716.75;5091615;28;20032;-48
2022/12/30 11:24:04;;;;;;;21.75;7.78;;;;;;;12.76;83.62;98714.63;5090459;28;20024;-48
2022/12/30 11:26:33;;;;;;;13.18;8.25;;;;;;;12.64;84.02;98695.25;5091394;28;20174;-48
2022/12/30 11:28:59;;;;;;;17.60;6.40;;;;;;;12.73;84.91;98710.56;5090345;28;20421;-48
2022/12/30 11:31:34;;;;;;;16.25;6.72;;;;;;;12.74;84.90;98717.44;5091614;28;20270;-48
2022/12/30 11:34:02;;;;;;;15.50;9.65;;;;;;;12.80;84.43;98723.69;5091681;28;20028;-48
2022/12/30 11:36:28;;;;;;;14.80;5.43;;;;;;;12.74;84.46;98720.09;5091580;28;20107;-48
2022/12/30 11:38:55;;;;;;;19.67;7.95;;;;;;;12.64;85.46;98714.50;5090328;28;20071;-47
2022/12/30 11:41:23;;;;;;;18.20;6.68;;;;;;;12.61;86.52;98698.31;5091492;28;20031;-48
2022/12/30 11:43:58;;;;;;;14.57;5.55;;;;;;;12.63;85.53;98701.53;5091575;28;20024;-47
2022/12/30 11:46:38;;;;;;;9.43;4.53;;;;;;;12.58;84.90;98695.06;5091542;28;20024;-47
2022/12/30 11:49:19;;;;;;;17.15;5.57;;;;;;;12.49;87.45;98683.19;5091583;28;20111;-47
2022/12/30 11:51:50;;;;;;;10.25;5.60;;;;;;;12.52;87.27;98689.88;5091785;28;20410;-47
2022/12/30 11:54:33;;;;;;;19.73;5.90;;;;;;;12.48;87.61;98689.47;5073293;28;20039;-47
2022/12/30 11:57:17;;;;;;;13.65;5.60;;;;;;;12.43;88.09;98686.66;5091498;28;20085;-47
2022/12/30 11:59:48;;;;;;;14.07;5.53;;;;;;;12.38;89.22;98697.03;5091454;28;20077;-47
2022/12/30 12:02:27;;;;;;;20.98;7.35;;;;;;;12.31;89.78;98681.25;5091390;28;20024;-47
2022/12/30 12:04:53;;;;;;;14.48;6.75;;;;;;;12.31;90.00;98704.94;5091654;28;20089;-47
2022/12/30 12:07:24;;;;;;;10.48;5.15;;;;;;;12.28;90.84;98712.47;5091311;28;20023;-46
2022/12/30 12:10:10;;;;;;;14.80;5.60;;;;;;;12.23;91.49;98702.56;5091412;28;20067;-47
2022/12/30 12:12:42;;;;;;;9.93;4.55;;;;;;;12.18;90.91;98694.50;5080292;28;20039;-46
2022/12/30 12:15:30;;;;;;;15.05;5.38;;;;;;;12.20;91.93;98674.06;5091315;28;20462;-46
2022/12/30 12:18:02;;;;;;;18.85;5.50;;;;;;;12.24;92.04;98679.72;5089954;28;20032;-46
2022/12/30 12:21:05;;;;;;;13.00;4.60;;;;;;;12.24;90.64;98677.06;5091378;28;20126;-46
2022/12/30 12:23:58;;;;;;;6.50;3.78;;;;;;;12.21;90.87;98682.75;5086679;28;20107;-46
2022/12/30 12:26:30;;;;;;;9.55;5.60;;;;;;;12.22;91.40;98677.28;5094542;28;20645;-47
2022/12/30 12:28:58;;;;;;;20.90;5.47;;;;;;;12.23;90.73;98672.81;5095056;28;20432;-47